sensor_id;sensor_type;location;lat;lon;timestamp;temperature;humidity
13711;DHT22;6927;51.256;9.410;2023-02-20T00:02:14;5.60;99.90
13711;DHT22;6927;51.256;9.410;2023-02-20T00:04:41;5.60;99.90
13711;DHT22;6927;51.256;9.410;2023-02-20T00:07:06;5.60;99.90
13711;DHT22;6927;51.256;9.410;2023-02-20T00:09:32;5.60;99.90
13711;DHT22;6927;51.256;9.410;2023-02-20T00:11:57;5.60;99.90
13711;DHT22;6927;51.256;9.410;2023-02-20T00:14:23;5.50;99.90
13711;DHT22;6927;51.256;9.410;2023-02-20T00:16:48;5.50;99.90
13711;DHT22;6927;51.256;9.410;2023-02-20T00:19:14;5.50;99.90
13711;DHT22;6927;51.256;9.410;2023-02-20T00:21:47;5.50;99.90
13711;DHT22;6927;51.256;9.410;2023-02-20T00:24:14;5.50;99.90
13711;DHT22;6927;51.256;9.410;2023-02-20T00:26:48;5.40;99.90
13711;DHT22;6927;51.256;9.410;2023-02-20T00:29:19;5.50;99.90
13711;DHT22;6927;51.256;9.410;2023-02-20T00:31:55;5.50;99.90
13711;DHT22;6927;51.256;9.410;2023-02-20T00:34:22;5.50;99.90
13711;DHT22;6927;51.256;9.410;2023-02-20T00:36:48;5.50;99.90
13711;DHT22;6927;51.256;9.410;2023-02-20T00:39:13;5.50;99.90
13711;DHT22;6927;51.256;9.410;2023-02-20T00:41:39;5.50;99.90
13711;DHT22;6927;51.256;9.410;2023-02-20T00:44:05;5.50;99.90
13711;DHT22;6927;51.256;9.410;2023-02-20T00:46:30;5.50;99.90
13711;DHT22;6927;51.256;9.410;2023-02-20T00:48:56;5.50;99.90
13711;DHT22;6927;51.256;9.410;2023-02-20T00:51:22;5.40;99.90
13711;DHT22;6927;51.256;9.410;2023-02-20T00:53:47;5.50;99.90
13711;DHT22;6927;51.256;9.410;2023-02-20T00:56:13;5.50;99.90
13711;DHT22;6927;51.256;9.410;2023-02-20T00:58:38;5.50;99.90
13711;DHT22;6927;51.256;9.410;2023-02-20T01:01:04;5.50;99.90
13711;DHT22;6927;51.256;9.410;2023-02-20T01:03:30;5.40;99.90
13711;DHT22;6927;51.256;9.410;2023-02-20T01:05:55;5.30;99.90
13711;DHT22;6927;51.256;9.410;2023-02-20T01:08:21;5.20;99.90
13711;DHT22;6927;51.256;9.410;2023-02-20T01:10:47;5.20;99.90
13711;DHT22;6927;51.256;9.410;2023-02-20T01:13:12;5.10;99.90
13711;DHT22;6927;51.256;9.410;2023-02-20T01:15:38;5.10;99.90
13711;DHT22;6927;51.256;9.410;2023-02-20T01:18:03;5.00;99.90
13711;DHT22;6927;51.256;9.410;2023-02-20T01:20:30;5.00;99.90
13711;DHT22;6927;51.256;9.410;2023-02-20T01:22:56;4.90;99.90
13711;DHT22;6927;51.256;9.410;2023-02-20T01:25:21;4.90;99.90
13711;DHT22;6927;51.256;9.410;2023-02-20T01:27:47;4.90;99.90
13711;DHT22;6927;51.256;9.410;2023-02-20T01:30:13;4.90;99.90
13711;DHT22;6927;51.256;9.410;2023-02-20T01:32:38;4.90;99.90
13711;DHT22;6927;51.256;9.410;2023-02-20T01:35:04;4.90;99.90
13711;DHT22;6927;51.256;9.410;2023-02-20T01:37:30;4.90;99.90
13711;DHT22;6927;51.256;9.410;2023-02-20T01:39:56;4.90;99.90
13711;DHT22;6927;51.256;9.410;2023-02-20T01:42:23;4.90;99.90
13711;DHT22;6927;51.256;9.410;2023-02-20T01:44:49;4.90;99.90
13711;DHT22;6927;51.256;9.410;2023-02-20T01:47:17;4.90;99.90
13711;DHT22;6927;51.256;9.410;2023-02-20T01:49:58;4.90;99.90
13711;DHT22;6927;51.256;9.410;2023-02-20T01:52:27;5.00;99.90
13711;DHT22;6927;51.256;9.410;2023-02-20T01:55:00;5.10;99.90
13711;DHT22;6927;51.256;9.410;2023-02-20T01:57:29;5.10;99.90
13711;DHT22;6927;51.256;9.410;2023-02-20T02:00:04;5.10;99.90
13711;DHT22;6927;51.256;9.410;2023-02-20T02:02:32;5.10;99.90
13711;DHT22;6927;51.256;9.410;2023-02-20T02:05:00;5.20;99.90
13711;DHT22;6927;51.256;9.410;2023-02-20T02:07:28;5.10;99.90
13711;DHT22;6927;51.256;9.410;2023-02-20T02:10:03;5.10;99.90
13711;DHT22;6927;51.256;9.410;2023-02-20T02:12:31;5.10;99.90
13711;DHT22;6927;51.256;9.410;2023-02-20T02:14:56;5.10;99.90
13711;DHT22;6927;51.256;9.410;2023-02-20T02:17:42;5.20;99.90
13711;DHT22;6927;51.256;9.410;2023-02-20T02:23:12;5.20;99.90
13711;DHT22;6927;51.256;9.410;2023-02-20T02:26:19;5.20;99.90
13711;DHT22;6927;51.256;9.410;2023-02-20T02:29:09;5.20;99.90
13711;DHT22;6927;51.256;9.410;2023-02-20T02:34:56;5.10;99.90
13711;DHT22;6927;51.256;9.410;2023-02-20T02:37:33;5.10;99.90
13711;DHT22;6927;51.256;9.410;2023-02-20T02:40:25;5.10;99.90
13711;DHT22;6927;51.256;9.410;2023-02-20T02:43:17;5.00;99.90
13711;DHT22;6927;51.256;9.410;2023-02-20T02:45:51;5.00;99.90
13711;DHT22;6927;51.256;9.410;2023-02-20T02:48:36;4.90;99.90
13711;DHT22;6927;51.256;9.410;2023-02-20T02:51:09;4.80;99.90
13711;DHT22;6927;51.256;9.410;2023-02-20T02:53:36;4.70;99.90
13711;DHT22;6927;51.256;9.410;2023-02-20T02:56:02;4.70;99.90
13711;DHT22;6927;51.256;9.410;2023-02-20T02:58:47;4.60;99.90
13711;DHT22;6927;51.256;9.410;2023-02-20T03:01:15;4.50;99.90
13711;DHT22;6927;51.256;9.410;2023-02-20T03:03:44;4.40;99.90
13711;DHT22;6927;51.256;9.410;2023-02-20T03:06:38;4.30;99.90
13711;DHT22;6927;51.256;9.410;2023-02-20T03:09:14;4.30;99.90
13711;DHT22;6927;51.256;9.410;2023-02-20T03:11:40;4.20;99.90
13711;DHT22;6927;51.256;9.410;2023-02-20T03:14:16;4.20;99.90
13711;DHT22;6927;51.256;9.410;2023-02-20T03:17:19;4.20;99.90
13711;DHT22;6927;51.256;9.410;2023-02-20T03:19:49;4.10;99.90
13711;DHT22;6927;51.256;9.410;2023-02-20T03:22:29;4.10;99.90
13711;DHT22;6927;51.256;9.410;2023-02-20T03:25:03;4.00;99.90
13711;DHT22;6927;51.256;9.410;2023-02-20T03:27:37;4.00;99.90
13711;DHT22;6927;51.256;9.410;2023-02-20T03:30:20;3.90;99.90
13711;DHT22;6927;51.256;9.410;2023-02-20T03:33:03;3.90;99.90
13711;DHT22;6927;51.256;9.410;2023-02-20T03:35:48;3.90;99.90
13711;DHT22;6927;51.256;9.410;2023-02-20T03:38:36;3.90;99.90
13711;DHT22;6927;51.256;9.410;2023-02-20T03:41:22;3.90;99.90
13711;DHT22;6927;51.256;9.410;2023-02-20T03:44:09;4.00;99.90
13711;DHT22;6927;51.256;9.410;2023-02-20T03:46:37;4.00;99.90
13711;DHT22;6927;51.256;9.410;2023-02-20T03:49:09;4.10;99.90
13711;DHT22;6927;51.256;9.410;2023-02-20T03:51:35;4.20;99.90
13711;DHT22;6927;51.256;9.410;2023-02-20T03:54:01;4.30;99.90
13711;DHT22;6927;51.256;9.410;2023-02-20T03:56:32;4.30;99.90
13711;DHT22;6927;51.256;9.410;2023-02-20T03:59:16;4.40;99.90
13711;DHT22;6927;51.256;9.410;2023-02-20T04:01:46;4.40;99.90
13711;DHT22;6927;51.256;9.410;2023-02-20T04:04:19;4.40;99.90
13711;DHT22;6927;51.256;9.410;2023-02-20T04:06:46;4.40;99.90
13711;DHT22;6927;51.256;9.410;2023-02-20T04:09:20;4.40;99.90
13711;DHT22;6927;51.256;9.410;2023-02-20T04:12:05;4.50;99.90
13711;DHT22;6927;51.256;9.410;2023-02-20T04:14:33;4.50;99.90
13711;DHT22;6927;51.256;9.410;2023-02-20T04:17:03;4.60;99.90
13711;DHT22;6927;51.256;9.410;2023-02-20T04:19:31;4.60;99.90
13711;DHT22;6927;51.256;9.410;2023-02-20T04:22:00;4.60;99.90
13711;DHT22;6927;51.256;9.410;2023-02-20T04:27:02;4.60;99.90
13711;DHT22;6927;51.256;9.410;2023-02-20T04:29:28;4.60;99.90
13711;DHT22;6927;51.256;9.410;2023-02-20T04:31:54;4.60;99.90
13711;DHT22;6927;51.256;9.410;2023-02-20T04:34:19;4.60;99.90
13711;DHT22;6927;51.256;9.410;2023-02-20T04:36:45;4.70;99.90
13711;DHT22;6927;51.256;9.410;2023-02-20T04:39:10;4.70;99.90
13711;DHT22;6927;51.256;9.410;2023-02-20T04:41:36;4.70;99.90
13711;DHT22;6927;51.256;9.410;2023-02-20T04:44:01;4.70;99.90
13711;DHT22;6927;51.256;9.410;2023-02-20T04:46:57;4.70;99.90
13711;DHT22;6927;51.256;9.410;2023-02-20T04:49:23;4.70;99.90
13711;DHT22;6927;51.256;9.410;2023-02-20T04:51:49;4.70;99.90
13711;DHT22;6927;51.256;9.410;2023-02-20T04:54:15;4.70;99.90
13711;DHT22;6927;51.256;9.410;2023-02-20T04:56:40;4.70;99.90
13711;DHT22;6927;51.256;9.410;2023-02-20T04:59:06;4.70;99.90
13711;DHT22;6927;51.256;9.410;2023-02-20T05:01:32;4.70;99.90
13711;DHT22;6927;51.256;9.410;2023-02-20T05:03:57;4.70;99.90
13711;DHT22;6927;51.256;9.410;2023-02-20T05:06:23;4.60;99.90
13711;DHT22;6927;51.256;9.410;2023-02-20T05:08:48;4.70;99.90
13711;DHT22;6927;51.256;9.410;2023-02-20T05:11:14;4.60;99.90
13711;DHT22;6927;51.256;9.410;2023-02-20T05:13:40;4.60;99.90
13711;DHT22;6927;51.256;9.410;2023-02-20T05:16:06;4.70;99.90
13711;DHT22;6927;51.256;9.410;2023-02-20T05:18:33;4.60;99.90
13711;DHT22;6927;51.256;9.410;2023-02-20T05:20:59;4.60;99.90
13711;DHT22;6927;51.256;9.410;2023-02-20T05:23:45;4.60;99.90
13711;DHT22;6927;51.256;9.410;2023-02-20T05:26:16;4.60;99.90
13711;DHT22;6927;51.256;9.410;2023-02-20T05:28:43;4.70;99.90
13711;DHT22;6927;51.256;9.410;2023-02-20T05:31:09;4.80;99.90
13711;DHT22;6927;51.256;9.410;2023-02-20T05:33:35;4.70;99.90
13711;DHT22;6927;51.256;9.410;2023-02-20T05:46:38;4.80;99.90
13711;DHT22;6927;51.256;9.410;2023-02-20T05:49:04;4.90;99.90
13711;DHT22;6927;51.256;9.410;2023-02-20T05:51:46;4.90;99.90
13711;DHT22;6927;51.256;9.410;2023-02-20T05:54:13;4.90;99.90
13711;DHT22;6927;51.256;9.410;2023-02-20T05:56:44;4.90;99.90
13711;DHT22;6927;51.256;9.410;2023-02-20T05:59:10;5.00;99.90
13711;DHT22;6927;51.256;9.410;2023-02-20T06:01:35;5.00;99.90
13711;DHT22;6927;51.256;9.410;2023-02-20T06:04:01;5.00;99.90
13711;DHT22;6927;51.256;9.410;2023-02-20T06:06:40;5.00;99.90
13711;DHT22;6927;51.256;9.410;2023-02-20T06:09:08;5.10;99.90
13711;DHT22;6927;51.256;9.410;2023-02-20T06:11:40;5.10;99.90
13711;DHT22;6927;51.256;9.410;2023-02-20T06:14:06;5.10;99.90
13711;DHT22;6927;51.256;9.410;2023-02-20T06:16:32;5.00;99.90
13711;DHT22;6927;51.256;9.410;2023-02-20T06:18:58;5.10;99.90
13711;DHT22;6927;51.256;9.410;2023-02-20T06:21:27;5.10;99.90
13711;DHT22;6927;51.256;9.410;2023-02-20T06:23:53;5.00;99.90
13711;DHT22;6927;51.256;9.410;2023-02-20T06:26:20;5.00;99.90
13711;DHT22;6927;51.256;9.410;2023-02-20T06:28:46;5.00;99.90
13711;DHT22;6927;51.256;9.410;2023-02-20T06:31:21;5.10;99.90
13711;DHT22;6927;51.256;9.410;2023-02-20T06:33:47;5.10;99.90
13711;DHT22;6927;51.256;9.410;2023-02-20T06:36:37;5.10;99.90
13711;DHT22;6927;51.256;9.410;2023-02-20T06:39:04;5.10;99.90
13711;DHT22;6927;51.256;9.410;2023-02-20T06:41:30;5.00;99.90
13711;DHT22;6927;51.256;9.410;2023-02-20T06:43:55;5.00;99.90
13711;DHT22;6927;51.256;9.410;2023-02-20T06:46:22;5.00;99.90
13711;DHT22;6927;51.256;9.410;2023-02-20T06:48:53;5.00;99.90
13711;DHT22;6927;51.256;9.410;2023-02-20T06:51:21;5.10;99.90
13711;DHT22;6927;51.256;9.410;2023-02-20T06:53:47;5.10;99.90
13711;DHT22;6927;51.256;9.410;2023-02-20T06:56:16;5.10;99.90
13711;DHT22;6927;51.256;9.410;2023-02-20T06:58:49;5.10;99.90
13711;DHT22;6927;51.256;9.410;2023-02-20T07:01:15;5.10;99.90
13711;DHT22;6927;51.256;9.410;2023-02-20T07:03:41;5.10;99.90
13711;DHT22;6927;51.256;9.410;2023-02-20T07:06:07;5.10;99.90
13711;DHT22;6927;51.256;9.410;2023-02-20T07:08:33;5.10;99.90
13711;DHT22;6927;51.256;9.410;2023-02-20T07:10:58;5.20;99.90
13711;DHT22;6927;51.256;9.410;2023-02-20T07:13:24;5.20;99.90
13711;DHT22;6927;51.256;9.410;2023-02-20T07:15:49;5.30;99.90
13711;DHT22;6927;51.256;9.410;2023-02-20T07:18:15;5.40;99.90
13711;DHT22;6927;51.256;9.410;2023-02-20T07:20:42;5.40;99.90
13711;DHT22;6927;51.256;9.410;2023-02-20T07:23:08;5.50;99.90
13711;DHT22;6927;51.256;9.410;2023-02-20T07:25:33;5.50;99.90
13711;DHT22;6927;51.256;9.410;2023-02-20T07:27:59;5.70;99.90
13711;DHT22;6927;51.256;9.410;2023-02-20T07:30:27;5.60;99.90
13711;DHT22;6927;51.256;9.410;2023-02-20T07:32:53;5.70;99.90
13711;DHT22;6927;51.256;9.410;2023-02-20T07:35:18;5.60;99.90
13711;DHT22;6927;51.256;9.410;2023-02-20T07:37:47;5.60;99.90
13711;DHT22;6927;51.256;9.410;2023-02-20T07:40:13;5.60;99.90
13711;DHT22;6927;51.256;9.410;2023-02-20T07:42:39;5.50;99.90
13711;DHT22;6927;51.256;9.410;2023-02-20T07:45:04;5.50;99.90
13711;DHT22;6927;51.256;9.410;2023-02-20T07:47:30;5.60;99.90
13711;DHT22;6927;51.256;9.410;2023-02-20T07:49:56;5.60;99.90
13711;DHT22;6927;51.256;9.410;2023-02-20T07:52:21;5.60;99.90
13711;DHT22;6927;51.256;9.410;2023-02-20T07:54:52;5.60;99.90
13711;DHT22;6927;51.256;9.410;2023-02-20T07:57:17;5.70;99.90
13711;DHT22;6927;51.256;9.410;2023-02-20T07:59:43;5.70;99.90
13711;DHT22;6927;51.256;9.410;2023-02-20T08:02:17;5.70;99.90
13711;DHT22;6927;51.256;9.410;2023-02-20T08:04:43;5.80;99.90
13711;DHT22;6927;51.256;9.410;2023-02-20T08:07:11;5.90;99.90
13711;DHT22;6927;51.256;9.410;2023-02-20T08:10:01;5.90;99.90
13711;DHT22;6927;51.256;9.410;2023-02-20T08:12:34;6.10;99.90
13711;DHT22;6927;51.256;9.410;2023-02-20T08:15:09;6.10;99.90
13711;DHT22;6927;51.256;9.410;2023-02-20T08:17:40;6.20;99.90
13711;DHT22;6927;51.256;9.410;2023-02-20T08:20:11;6.30;99.90
13711;DHT22;6927;51.256;9.410;2023-02-20T08:23:01;6.40;99.90
13711;DHT22;6927;51.256;9.410;2023-02-20T08:25:47;6.40;99.90
13711;DHT22;6927;51.256;9.410;2023-02-20T08:28:31;6.50;99.90
13711;DHT22;6927;51.256;9.410;2023-02-20T08:30:57;6.60;99.90
13711;DHT22;6927;51.256;9.410;2023-02-20T08:33:27;6.60;99.90
13711;DHT22;6927;51.256;9.410;2023-02-20T08:35:53;6.70;99.90
13711;DHT22;6927;51.256;9.410;2023-02-20T08:38:36;6.80;99.90
13711;DHT22;6927;51.256;9.410;2023-02-20T08:41:04;7.00;99.90
13711;DHT22;6927;51.256;9.410;2023-02-20T08:43:32;7.10;99.90
13711;DHT22;6927;51.256;9.410;2023-02-20T08:45:59;7.20;99.90
13711;DHT22;6927;51.256;9.410;2023-02-20T09:34:47;13.90;99.90
13711;DHT22;6927;51.256;9.410;2023-02-20T09:37:51;14.50;99.90
13711;DHT22;6927;51.256;9.410;2023-02-20T09:40:45;14.30;99.90
13711;DHT22;6927;51.256;9.410;2023-02-20T09:46:15;14.50;99.90
13711;DHT22;6927;51.256;9.410;2023-02-20T09:49:13;14.40;99.90
13711;DHT22;6927;51.256;9.410;2023-02-20T09:51:48;13.60;99.90
13711;DHT22;6927;51.256;9.410;2023-02-20T09:57:26;13.30;99.90
13711;DHT22;6927;51.256;9.410;2023-02-20T10:00:20;13.70;99.90
13711;DHT22;6927;51.256;9.410;2023-02-20T10:06:31;13.60;99.90
13711;DHT22;6927;51.256;9.410;2023-02-20T10:09:10;14.60;99.90
13711;DHT22;6927;51.256;9.410;2023-02-20T10:22:00;13.70;99.90
13711;DHT22;6927;51.256;9.410;2023-02-20T10:24:36;13.00;99.90
13711;DHT22;6927;51.256;9.410;2023-02-20T10:29:57;12.90;99.90
13711;DHT22;6927;51.256;9.410;2023-02-20T10:33:05;13.30;99.90
13711;DHT22;6927;51.256;9.410;2023-02-20T10:36:11;13.70;99.90
13711;DHT22;6927;51.256;9.410;2023-02-20T10:44:18;14.20;99.90
13711;DHT22;6927;51.256;9.410;2023-02-20T10:50:45;13.90;99.90
13711;DHT22;6927;51.256;9.410;2023-02-20T10:56:41;12.90;99.90
13711;DHT22;6927;51.256;9.410;2023-02-20T11:05:39;12.70;99.90
13711;DHT22;6927;51.256;9.410;2023-02-20T11:08:41;12.80;99.90
13711;DHT22;6927;51.256;9.410;2023-02-20T11:11:23;12.80;99.90
13711;DHT22;6927;51.256;9.410;2023-02-20T11:13:49;13.00;99.90
13711;DHT22;6927;51.256;9.410;2023-02-20T11:16:31;13.40;99.90
13711;DHT22;6927;51.256;9.410;2023-02-20T11:19:07;13.30;99.90
13711;DHT22;6927;51.256;9.410;2023-02-20T11:21:38;13.40;99.90
13711;DHT22;6927;51.256;9.410;2023-02-20T11:24:26;13.50;99.90
13711;DHT22;6927;51.256;9.410;2023-02-20T11:27:23;14.50;99.90
13711;DHT22;6927;51.256;9.410;2023-02-20T11:30:03;14.90;99.90
13711;DHT22;6927;51.256;9.410;2023-02-20T11:32:38;14.90;99.90
13711;DHT22;6927;51.256;9.410;2023-02-20T11:38:18;15.30;99.90
13711;DHT22;6927;51.256;9.410;2023-02-20T11:40:37;14.70;99.90
13711;DHT22;6927;51.256;9.410;2023-02-20T11:45:39;13.80;99.90
13711;DHT22;6927;51.256;9.410;2023-02-20T11:48:20;13.40;99.90
13711;DHT22;6927;51.256;9.410;2023-02-20T11:51:03;13.50;99.90
13711;DHT22;6927;51.256;9.410;2023-02-20T11:53:32;13.70;99.90
13711;DHT22;6927;51.256;9.410;2023-02-20T11:58:51;13.80;99.90
13711;DHT22;6927;51.256;9.410;2023-02-20T12:01:43;14.40;99.90
13711;DHT22;6927;51.256;9.410;2023-02-20T12:04:24;15.10;99.90
13711;DHT22;6927;51.256;9.410;2023-02-20T12:06:55;15.40;99.90
13711;DHT22;6927;51.256;9.410;2023-02-20T12:09:26;15.40;99.90
13711;DHT22;6927;51.256;9.410;2023-02-20T12:11:59;15.20;99.90
13711;DHT22;6927;51.256;9.410;2023-02-20T12:14:42;15.60;99.90
13711;DHT22;6927;51.256;9.410;2023-02-20T12:17:37;16.10;99.90
13711;DHT22;6927;51.256;9.410;2023-02-20T12:20:23;15.90;99.90
13711;DHT22;6927;51.256;9.410;2023-02-20T12:26:11;15.00;99.90
13711;DHT22;6927;51.256;9.410;2023-02-20T12:34:59;16.20;99.90
13711;DHT22;6927;51.256;9.410;2023-02-20T12:46:30;16.70;99.90
13711;DHT22;6927;51.256;9.410;2023-02-20T12:54:50;15.90;99.90
13711;DHT22;6927;51.256;9.410;2023-02-20T13:02:50;16.10;99.90
13711;DHT22;6927;51.256;9.410;2023-02-20T13:06:03;15.80;99.90
13711;DHT22;6927;51.256;9.410;2023-02-20T13:09:08;15.40;99.90
13711;DHT22;6927;51.256;9.410;2023-02-20T14:11:41;15.30;99.90
13711;DHT22;6927;51.256;9.410;2023-02-20T14:33:23;18.40;99.90
13711;DHT22;6927;51.256;9.410;2023-02-20T14:36:06;18.20;99.90
13711;DHT22;6927;51.256;9.410;2023-02-20T14:39:02;17.50;99.90
13711;DHT22;6927;51.256;9.410;2023-02-20T14:41:32;16.10;99.90
13711;DHT22;6927;51.256;9.410;2023-02-20T14:44:00;14.80;99.90
13711;DHT22;6927;51.256;9.410;2023-02-20T14:46:34;13.90;99.90
13711;DHT22;6927;51.256;9.410;2023-02-20T14:51:29;12.80;99.90
13711;DHT22;6927;51.256;9.410;2023-02-20T14:56:39;12.50;99.90
13711;DHT22;6927;51.256;9.410;2023-02-20T14:59:28;12.30;99.90
13711;DHT22;6927;51.256;9.410;2023-02-20T15:02:17;12.10;99.90
13711;DHT22;6927;51.256;9.410;2023-02-20T15:04:58;12.00;99.90
13711;DHT22;6927;51.256;9.410;2023-02-20T15:07:26;11.80;99.90
13711;DHT22;6927;51.256;9.410;2023-02-20T15:09:55;11.80;99.90
13711;DHT22;6927;51.256;9.410;2023-02-20T15:12:35;11.80;99.90
13711;DHT22;6927;51.256;9.410;2023-02-20T15:15:06;11.70;99.90
13711;DHT22;6927;51.256;9.410;2023-02-20T15:17:35;11.70;99.90
13711;DHT22;6927;51.256;9.410;2023-02-20T15:20:18;11.70;99.90
13711;DHT22;6927;51.256;9.410;2023-02-20T15:22:44;11.70;99.90
13711;DHT22;6927;51.256;9.410;2023-02-20T15:27:38;11.60;99.90
13711;DHT22;6927;51.256;9.410;2023-02-20T15:30:16;11.60;99.90
13711;DHT22;6927;51.256;9.410;2023-02-20T15:32:50;11.50;99.90
13711;DHT22;6927;51.256;9.410;2023-02-20T15:35:19;11.60;99.90
13711;DHT22;6927;51.256;9.410;2023-02-20T15:37:46;11.50;99.90
13711;DHT22;6927;51.256;9.410;2023-02-20T15:42:43;11.50;99.90
13711;DHT22;6927;51.256;9.410;2023-02-20T15:45:12;11.40;99.90
13711;DHT22;6927;51.256;9.410;2023-02-20T15:47:46;11.30;99.90
13711;DHT22;6927;51.256;9.410;2023-02-20T15:50:12;11.20;99.90
13711;DHT22;6927;51.256;9.410;2023-02-20T15:52:38;11.20;99.90
13711;DHT22;6927;51.256;9.410;2023-02-20T15:55:14;11.20;99.90
13711;DHT22;6927;51.256;9.410;2023-02-20T15:57:48;11.10;99.90
13711;DHT22;6927;51.256;9.410;2023-02-20T16:00:20;11.10;99.90
13711;DHT22;6927;51.256;9.410;2023-02-20T16:02:46;11.10;99.90
13711;DHT22;6927;51.256;9.410;2023-02-20T16:05:12;11.00;99.90
13711;DHT22;6927;51.256;9.410;2023-02-20T16:07:37;11.00;99.90
13711;DHT22;6927;51.256;9.410;2023-02-20T16:10:03;11.00;99.90
13711;DHT22;6927;51.256;9.410;2023-02-20T16:12:29;10.90;99.90
13711;DHT22;6927;51.256;9.410;2023-02-20T16:15:00;10.90;99.90
13711;DHT22;6927;51.256;9.410;2023-02-20T16:17:28;10.90;99.90
13711;DHT22;6927;51.256;9.410;2023-02-20T16:19:56;10.80;99.90
13711;DHT22;6927;51.256;9.410;2023-02-20T16:22:22;10.80;99.90
13711;DHT22;6927;51.256;9.410;2023-02-20T16:24:47;10.70;99.90
13711;DHT22;6927;51.256;9.410;2023-02-20T16:27:18;10.80;99.90
13711;DHT22;6927;51.256;9.410;2023-02-20T16:29:46;10.70;99.90
13711;DHT22;6927;51.256;9.410;2023-02-20T16:32:32;10.70;99.90
13711;DHT22;6927;51.256;9.410;2023-02-20T16:34:59;10.60;99.90
13711;DHT22;6927;51.256;9.410;2023-02-20T16:37:25;10.60;99.90
13711;DHT22;6927;51.256;9.410;2023-02-20T16:39:53;10.60;99.90
13711;DHT22;6927;51.256;9.410;2023-02-20T16:44:50;10.50;99.90
13711;DHT22;6927;51.256;9.410;2023-02-20T16:47:19;10.50;99.90
13711;DHT22;6927;51.256;9.410;2023-02-20T16:49:47;10.40;99.90
13711;DHT22;6927;51.256;9.410;2023-02-20T16:52:16;10.40;99.90
13711;DHT22;6927;51.256;9.410;2023-02-20T16:54:45;10.30;99.90
13711;DHT22;6927;51.256;9.410;2023-02-20T16:57:15;10.30;99.90
13711;DHT22;6927;51.256;9.410;2023-02-20T16:59:40;10.20;99.90
13711;DHT22;6927;51.256;9.410;2023-02-20T17:02:14;10.20;99.90
13711;DHT22;6927;51.256;9.410;2023-02-20T17:04:41;10.20;99.90
13711;DHT22;6927;51.256;9.410;2023-02-20T17:07:06;10.10;99.90
13711;DHT22;6927;51.256;9.410;2023-02-20T17:09:35;10.10;99.90
13711;DHT22;6927;51.256;9.410;2023-02-20T17:12:01;10.10;99.90
13711;DHT22;6927;51.256;9.410;2023-02-20T17:14:27;10.00;99.90
13711;DHT22;6927;51.256;9.410;2023-02-20T17:16:52;10.00;99.90
13711;DHT22;6927;51.256;9.410;2023-02-20T17:19:18;10.00;99.90
13711;DHT22;6927;51.256;9.410;2023-02-20T17:21:48;9.90;99.90
13711;DHT22;6927;51.256;9.410;2023-02-20T17:24:15;9.90;99.90
13711;DHT22;6927;51.256;9.410;2023-02-20T17:26:41;9.90;99.90
13711;DHT22;6927;51.256;9.410;2023-02-20T17:29:10;9.90;99.90
13711;DHT22;6927;51.256;9.410;2023-02-20T17:31:36;9.80;99.90
13711;DHT22;6927;51.256;9.410;2023-02-20T17:34:02;9.80;99.90
13711;DHT22;6927;51.256;9.410;2023-02-20T17:36:29;9.80;99.90
13711;DHT22;6927;51.256;9.410;2023-02-20T17:55:41;9.40;99.90
13711;DHT22;6927;51.256;9.410;2023-02-20T18:04:34;9.30;99.90
13711;DHT22;6927;51.256;9.410;2023-02-20T18:13:18;9.20;99.90
13711;DHT22;6927;51.256;9.410;2023-02-20T19:22:52;8.70;99.90
13711;DHT22;6927;51.256;9.410;2023-02-20T19:26:07;8.70;99.90
13711;DHT22;6927;51.256;9.410;2023-02-20T19:32:11;8.60;99.90
13711;DHT22;6927;51.256;9.410;2023-02-20T19:34:50;8.60;99.90
13711;DHT22;6927;51.256;9.410;2023-02-20T19:37:30;8.70;99.90
13711;DHT22;6927;51.256;9.410;2023-02-20T19:40:26;8.60;99.90
13711;DHT22;6927;51.256;9.410;2023-02-20T19:42:57;8.60;99.90
13711;DHT22;6927;51.256;9.410;2023-02-20T19:48:53;8.60;99.90
13711;DHT22;6927;51.256;9.410;2023-02-20T19:51:30;8.60;99.90
13711;DHT22;6927;51.256;9.410;2023-02-20T19:54:19;8.60;99.90
13711;DHT22;6927;51.256;9.410;2023-02-20T19:57:00;8.60;99.90
13711;DHT22;6927;51.256;9.410;2023-02-20T19:59:32;8.60;99.90
13711;DHT22;6927;51.256;9.410;2023-02-20T20:04:58;8.50;99.90
13711;DHT22;6927;51.256;9.410;2023-02-20T20:07:32;8.50;99.90
13711;DHT22;6927;51.256;9.410;2023-02-20T20:10:20;8.50;99.90
13711;DHT22;6927;51.256;9.410;2023-02-20T20:15:38;8.50;99.90
13711;DHT22;6927;51.256;9.410;2023-02-20T20:18:16;8.50;99.90
13711;DHT22;6927;51.256;9.410;2023-02-20T20:21:16;8.50;99.90
13711;DHT22;6927;51.256;9.410;2023-02-20T20:26:49;8.40;99.90
13711;DHT22;6927;51.256;9.410;2023-02-20T20:29:20;8.40;99.90
13711;DHT22;6927;51.256;9.410;2023-02-20T20:32:05;8.50;99.90
13711;DHT22;6927;51.256;9.410;2023-02-20T20:34:41;8.50;99.90
13711;DHT22;6927;51.256;9.410;2023-02-20T20:37:15;8.40;99.90
13711;DHT22;6927;51.256;9.410;2023-02-20T20:39:46;8.40;99.90
13711;DHT22;6927;51.256;9.410;2023-02-20T20:45:47;8.40;99.90
13711;DHT22;6927;51.256;9.410;2023-02-20T20:48:20;8.40;99.90
13711;DHT22;6927;51.256;9.410;2023-02-20T20:51:05;8.30;99.90
13711;DHT22;6927;51.256;9.410;2023-02-20T20:53:53;8.30;99.90
13711;DHT22;6927;51.256;9.410;2023-02-20T20:56:30;8.30;99.90
13711;DHT22;6927;51.256;9.410;2023-02-20T20:58:59;8.30;99.90
13711;DHT22;6927;51.256;9.410;2023-02-20T21:01:25;8.30;99.90
13711;DHT22;6927;51.256;9.410;2023-02-20T21:03:59;8.30;99.90
13711;DHT22;6927;51.256;9.410;2023-02-20T21:06:30;8.30;99.90
13711;DHT22;6927;51.256;9.410;2023-02-20T21:09:16;8.30;99.90
13711;DHT22;6927;51.256;9.410;2023-02-20T21:12:11;8.30;99.90
13711;DHT22;6927;51.256;9.410;2023-02-20T21:14:51;8.30;99.90
13711;DHT22;6927;51.256;9.410;2023-02-20T21:17:36;8.20;99.90
13711;DHT22;6927;51.256;9.410;2023-02-20T21:26:20;8.30;99.90
13711;DHT22;6927;51.256;9.410;2023-02-20T21:29:10;8.30;99.90
13711;DHT22;6927;51.256;9.410;2023-02-20T21:32:07;8.40;99.90
13711;DHT22;6927;51.256;9.410;2023-02-20T21:35:12;8.40;99.90
13711;DHT22;6927;51.256;9.410;2023-02-20T21:41:18;8.30;99.90
13711;DHT22;6927;51.256;9.410;2023-02-20T21:44:02;8.30;99.90
13711;DHT22;6927;51.256;9.410;2023-02-20T21:46:48;8.40;99.90
13711;DHT22;6927;51.256;9.410;2023-02-20T21:49:14;8.40;99.90
13711;DHT22;6927;51.256;9.410;2023-02-20T21:51:40;8.30;99.90
13711;DHT22;6927;51.256;9.410;2023-02-20T21:54:05;8.30;99.90
13711;DHT22;6927;51.256;9.410;2023-02-20T21:56:31;8.30;99.90
13711;DHT22;6927;51.256;9.410;2023-02-20T21:58:57;8.30;99.90
13711;DHT22;6927;51.256;9.410;2023-02-20T22:01:26;8.20;99.90
13711;DHT22;6927;51.256;9.410;2023-02-20T22:03:52;8.20;99.90
13711;DHT22;6927;51.256;9.410;2023-02-20T22:06:17;8.20;99.90
13711;DHT22;6927;51.256;9.410;2023-02-20T22:08:43;8.20;99.90
13711;DHT22;6927;51.256;9.410;2023-02-20T22:11:27;8.20;99.90
13711;DHT22;6927;51.256;9.410;2023-02-20T22:14:11;8.10;99.90
13711;DHT22;6927;51.256;9.410;2023-02-20T22:16:55;8.10;99.90
13711;DHT22;6927;51.256;9.410;2023-02-20T22:19:40;8.10;99.90
13711;DHT22;6927;51.256;9.410;2023-02-20T22:22:24;8.10;99.90
13711;DHT22;6927;51.256;9.410;2023-02-20T22:25:09;8.10;99.90
13711;DHT22;6927;51.256;9.410;2023-02-20T22:27:53;8.20;99.90
13711;DHT22;6927;51.256;9.410;2023-02-20T22:30:37;8.20;99.90
13711;DHT22;6927;51.256;9.410;2023-02-20T22:33:22;8.20;99.90
13711;DHT22;6927;51.256;9.410;2023-02-20T22:36:06;8.30;99.90
13711;DHT22;6927;51.256;9.410;2023-02-20T22:38:51;8.30;99.90